高松空港の過去48時間の天気

高松空港 (Takamatsu)

現在時刻: 4/26 20:26 JST (4/26 11:26 UTC) 以下の時間は現地時間です。

過去48時間のMETAR気象情報
時間 風向 風速(m/s) 視程 気温(℃) 湿度(%) 気圧(hPa) 天気現象
26 20:00 南南東 2 10km以上 15 63 1012
26 19:00 南東 3 10km以上 15 59 1012
26 18:00 2 10km以上 17 45 1012
26 17:00 東北東 3 10km以上 19 43 1012
26 16:00 東北東 5 10km以上 18 37 1012
26 15:00 東北東 4 10km以上 19 40 1012
26 14:00 東北東 5 10km以上 19 56 1012
26 13:00 東北東 4 10km以上 18 60 1013
26 12:00 北東 3 10km以上 17 52 1014
26 11:00 2 10km以上 15 63 1014
26 10:00 北北東 2 10km以上 14 63 1015
26 09:00 不定 1 10km以上 13 67 1014
26 08:00 西北西 2 10km以上 12 71 1015
26 07:00 南西 2 10km以上 12 82 1014
26 06:20 南南西 2 10km以上 10 87 1014
25 21:00 北北西 3 10km以上 13 72 1012
25 20:00 北北西 3 10km以上 13 72 1010
25 19:00 北北西 2 10km以上 14 77 1010
25 18:00 西 3 10km以上 15 82 1009
25 17:00 西南西 4 10km以上 15 82 1008
25 16:00 西南西 5 10km以上 16 77 1008
25 15:00 西南西 5 10km以上 15 77 1007
25 14:00 西南西 5 10km以上 15 82 1007
25 13:00 西南西 6 10km以上 15 77 1008
25 12:00 南西 6 10km以上 15 77 1008
25 11:00 西南西 5 10km以上 14 82 1008
25 10:00 西南西 7 10km以上 14 88 1007
25 09:00 西南西 7 10km以上 14 88 1007
25 08:00 西南西 7 10km以上 13 94 1006
25 07:00 西南西 6 10km以上 13 94 1005
25 06:20 西南西 7 10km以上 13 94 1005
24 21:25 西 2 2,500m 18 100 1004 しゅう雨 もや
24 21:11 西南西 2 4,000m 18 100 1004 しゅう雨 もや
24 21:00 西 2 4,000m 18 100 1004 弱いしゅう雨 もや
RJOT 261100Z 15004KT CAVOK 15/08 Q1012
RJOT 261000Z 14006KT CAVOK 15/07 Q1012
RJOT 260900Z 08004KT 060V120 9999 FEW040 BKN/// 17/05 Q1012
RJOT 260800Z 07006KT 030V110 9999 FEW040 BKN/// 19/06 Q1012
RJOT 260700Z 07009KT CAVOK 18/03 Q1012
RJOT 260600Z 06008KT 030V090 CAVOK 19/05 Q1012
RJOT 260500Z 06009KT CAVOK 19/10 Q1012
RJOT 260400Z 06007KT 010V100 CAVOK 18/10 Q1013
RJOT 260300Z 05005KT 340V090 CAVOK 17/07 Q1014
RJOT 260200Z 36004KT 310V080 9999 FEW025 BKN/// 15/08 Q1014
RJOT 260100Z 03004KT 350V140 9999 FEW025 BKN/// 14/07 Q1015
RJOT 260000Z VRB02KT 9999 FEW025 BKN/// 13/07 Q1014
RJOT 252300Z 29003KT 240V340 9999 FEW025 BKN/// 12/07 Q1015
RJOT 252200Z 23003KT 9999 FEW025 BKN/// 12/09 Q1014
RJOT 252120Z 21004KT 9999 FEW020 BKN/// 10/08 Q1014 RMK 1CU020 A2995
RJOT 251200Z 34005KT 310V010 9999 FEW020 BKN035 13/08 Q1012
RJOT 251100Z 33005KT 280V020 9999 FEW020 BKN035 13/08 Q1010
RJOT 251000Z 34004KT 300V040 9999 FEW020 BKN035 14/10 Q1010
RJOT 250900Z 28005KT 9999 FEW020 BKN035 15/12 Q1009
RJOT 250800Z 25008KT 9999 FEW020 BKN035 15/12 Q1008
RJOT 250700Z 25009KT 9999 FEW020 BKN035 16/12 Q1008
RJOT 250600Z 25010KT 9999 FEW020 BKN035 15/11 Q1007
RJOT 250500Z 25010KT 9999 FEW020 BKN035 15/12 Q1007
RJOT 250400Z 25011KT 9999 FEW015 BKN025 15/11 Q1008
RJOT 250300Z 23011KT 9999 FEW005 SCT015 BKN025 15/11 Q1008
RJOT 250200Z 24010KT 9999 FEW005 SCT015 BKN025 14/11 Q1008
RJOT 250100Z 25013KT 9999 FEW005 SCT015 BKN030 14/12 Q1007
RJOT 250000Z 25013KT 9999 FEW005 SCT015 BKN030 14/12 Q1007
RJOT 242300Z 25014KT 9999 FEW005 SCT015 BKN030 13/12 Q1006
RJOT 242200Z 25012KT 9999 FEW005 SCT010 BKN020 13/12 Q1005
RJOT 242120Z 25014KT 9999 FEW005 SCT008 BKN020 13/12 Q1005 RMK 1ST005 3ST008 5CU020 A2969
RJOT 241225Z 26003KT 240V310 2500 SHRA BR FEW001 SCT004 BKN009 18/18 Q1004 RMK 1ST001 3ST004 5ST009 A2965
RJOT 241211Z 24004KT 4000 SHRA BR FEW001 SCT010 BKN020 18/18 Q1004 RMK 1ST001 3CU010 5CU020 A2966
RJOT 241200Z 26003KT 4000 -SHRA BR FEW001 SCT050 BKN080 18/18 Q1004